Map

Track Data

SID SEASON NUMBER BASIN SUBBASIN NAME ISO_TIME NATURE LAT LON WMO_WIND WMO_PRES WMO_AGENCY TRACK_TYPE DIST2LAND LANDFALL IFLAG USA_AGENCY USA_ATCF_ID USA_LAT USA_LON USA_RECORD USA_STATUS USA_WIND USA_PRES USA_SSHS USA_R34_NE USA_R34_SE USA_R34_SW USA_R34_NW USA_R50_NE USA_R50_SE USA_R50_SW USA_R50_NW USA_R64_NE USA_R64_SE USA_R64_SW USA_R64_NW USA_POCI USA_ROCI USA_RMW USA_EYE TOKYO_LAT TOKYO_LON TOKYO_GRADE TOKYO_WIND TOKYO_PRES TOKYO_R50_DIR TOKYO_R50_LONG TOKYO_R50_SHORT TOKYO_R30_DIR TOKYO_R30_LONG TOKYO_R30_SHORT TOKYO_LAND CMA_LAT CMA_LON CMA_CAT CMA_WIND CMA_PRES HKO_LAT HKO_LON HKO_CAT HKO_WIND HKO_PRES NEWDELHI_LAT NEWDELHI_LON NEWDELHI_GRADE NEWDELHI_WIND NEWDELHI_PRES NEWDELHI_CI NEWDELHI_DP NEWDELHI_POCI REUNION_LAT REUNION_LON REUNION_TYPE REUNION_WIND REUNION_PRES REUNION_TNUM REUNION_CI REUNION_RMW REUNION_R34_NE REUNION_R34_SE REUNION_R34_SW REUNION_R34_NW REUNION_R50_NE REUNION_R50_SE REUNION_R50_SW REUNION_R50_NW REUNION_R64_NE REUNION_R64_SE REUNION_R64_SW REUNION_R64_NW BOM_LAT BOM_LON BOM_TYPE BOM_WIND BOM_PRES BOM_TNUM BOM_CI BOM_RMW BOM_R34_NE BOM_R34_SE BOM_R34_SW BOM_R34_NW BOM_R50_NE BOM_R50_SE BOM_R50_SW BOM_R50_NW BOM_R64_NE BOM_R64_SE BOM_R64_SW BOM_R64_NW BOM_ROCI BOM_POCI BOM_EYE BOM_POS_METHOD BOM_PRES_METHOD NADI_LAT NADI_LON NADI_CAT NADI_WIND NADI_PRES WELLINGTON_LAT WELLINGTON_LON WELLINGTON_WIND WELLINGTON_PRES DS824_LAT DS824_LON DS824_STAGE DS824_WIND DS824_PRES TD9636_LAT TD9636_LON TD9636_STAGE TD9636_WIND TD9636_PRES TD9635_LAT TD9635_LON TD9635_WIND TD9635_PRES TD9635_ROCI NEUMANN_LAT NEUMANN_LON NEUMANN_CLASS NEUMANN_WIND NEUMANN_PRES MLC_LAT MLC_LON MLC_CLASS MLC_WIND MLC_PRES USA_GUST BOM_GUST BOM_GUST_PER REUNION_GUST REUNION_GUST_PER USA_SEAHGT USA_SEARAD_NE USA_SEARAD_SE USA_SEARAD_SW USA_SEARAD_NW STORM_SPEED STORM_DIR
1912281N15140 1912 52 WP MM NOT_NAMED 1912-10-06 16:00:00 NR 15.2000 139.700 main 1570 1518 __________O___ -1 15.2000 139.700 7 16 270
1912281N15140 1912 52 WP MM NOT_NAMED 1912-10-06 18:00:00 NR 15.1964 139.156 main 1518 1423 __________P___ -1 15.1964 139.156 7 16 270
1912281N15140 1912 52 WP MM NOT_NAMED 1912-10-06 21:00:00 NR 15.1912 138.344 main 1423 1339 __________P___ -1 15.1912 138.344 7 16 270
1912281N15140 1912 52 WP MM NOT_NAMED 1912-10-07 00:00:00 NR 15.1895 137.542 main 1339 1266 __________P___ -1 15.1895 137.542 7 15 270
1912281N15140 1912 52 WP MM NOT_NAMED 1912-10-07 03:00:00 NR 15.1956 136.757 main 1266 1235 __________P___ -1 15.1956 136.757 7 15 271
1912281N15140 1912 52 WP MM NOT_NAMED 1912-10-07 04:00:00 NR 15.2000 136.500 main 1235 1183 __________O___ -1 15.2000 136.500 7 15 271
1912281N15140 1912 52 WP MM NOT_NAMED 1912-10-07 06:00:00 NR 15.2134 135.994 main 1183 1111 __________P___ -1 15.2134 135.994 7 14 272
1912281N15140 1912 52 WP MM NOT_NAMED 1912-10-07 09:00:00 NR 15.2465 135.254 main 1111 1032 __________P___ -1 15.2465 135.254 7 14 273
1912281N15140 1912 52 WP MM NOT_NAMED 1912-10-07 12:00:00 NR 15.2978 134.534 main 1032 965 __________P___ -1 15.2978 134.534 7 14 275
1912281N15140 1912 52 WP MM NOT_NAMED 1912-10-07 15:00:00 NR 15.3705 133.831 main 965 945 __________P___ -1 15.3705 133.831 7 14 276
1912281N15140 1912 52 WP MM NOT_NAMED 1912-10-07 16:00:00 NR 15.4000 133.600 main 945 900 __________O___ -1 15.4000 133.600 7 14 278
1912281N15140 1912 52 WP MM NOT_NAMED 1912-10-07 18:00:00 NR 15.4604 133.136 main 900 846 __________P___ -1 15.4604 133.136 7 13 279
1912281N15140 1912 52 WP MM NOT_NAMED 1912-10-07 21:00:00 NR 15.5703 132.452 main 846 784 __________P___ -1 15.5703 132.452 7 13 280
1912281N15140 1912 52 WP MM NOT_NAMED 1912-10-08 00:00:00 NR 15.7004 131.781 main 784 726 __________P___ -1 15.7004 131.781 7 13 282
1912281N15140 1912 52 WP MM NOT_NAMED 1912-10-08 03:00:00 NR 15.8477 131.119 main 726 714 __________P___ -1 15.8477 131.119 7 13 283
1912281N15140 1912 52 WP MM NOT_NAMED 1912-10-08 04:00:00 NR 15.9000 130.900 main 714 686 __________O___ -1 15.9000 130.900 7 13 284
1912281N15140 1912 52 WP MM NOT_NAMED 1912-10-08 06:00:00 NR 15.9994 130.463 main 686 634 __________P___ -1 15.9994 130.463 7 13 284
1912281N15140 1912 52 WP MM NOT_NAMED 1912-10-08 09:00:00 NR 16.1615 129.815 main 634 581 __________P___ -1 16.1615 129.815 7 13 285
1912281N15140 1912 52 WP MM NOT_NAMED 1912-10-08 12:00:00 NR 16.3391 129.169 main 581 527 __________P___ -1 16.3391 129.169 7 13 287
1912281N15140 1912 52 WP MM NOT_NAMED 1912-10-08 15:00:00 NR 16.5322 128.519 main 527 516 __________P___ -1 16.5322 128.519 7 13 287
1912281N15140 1912 52 WP MM NOT_NAMED 1912-10-08 16:00:00 NR 16.6000 128.300 main 516 480 __________O___ -1 16.6000 128.300 7 14 288
1912281N15140 1912 52 WP MM NOT_NAMED 1912-10-08 18:00:00 NR 16.7442 127.819 main 480 449 __________P___ -1 16.7442 127.819 7 15 288
1912281N15140 1912 52 WP MM NOT_NAMED 1912-10-08 21:00:00 NR 16.9732 127.091 main 450 415 __________P___ -1 16.9732 127.091 7 14 289
1912281N15140 1912 52 WP MM NOT_NAMED 1912-10-09 00:00:00 NR 17.2058 126.396 main 415 353 __________P___ -1 17.2058 126.396 7 13 290
1912281N15140 1912 52 WP MM NOT_NAMED 1912-10-09 03:00:00 NR 17.4295 125.779 main 353 333 __________P___ -1 17.4295 125.779 7 12 291
1912281N15140 1912 52 WP MM NOT_NAMED 1912-10-09 04:00:00 NR 17.5000 125.600 main 333 304 __________O___ -1 17.5000 125.600 3 10 294
1912281N15140 1912 52 WP MM NOT_NAMED 1912-10-09 06:00:00 NR 17.6269 125.313 main 304 280 __________P___ -1 17.6269 125.313 3 8 297
1912281N15140 1912 52 WP MM NOT_NAMED 1912-10-09 09:00:00 NR 17.8056 124.972 main 280 252 __________P___ -1 17.8056 124.972 3 7 300
1912281N15140 1912 52 WP MM NOT_NAMED 1912-10-09 12:00:00 NR 17.9759 124.688 main 255 222 __________P___ -1 17.9759 124.688 3 6 302
1912281N15140 1912 52 WP MM NOT_NAMED 1912-10-09 15:00:00 NR 18.1437 124.404 main 222 211 __________P___ -1 18.1437 124.404 3 6 301
1912281N15140 1912 52 WP MM NOT_NAMED 1912-10-09 16:00:00 NR 18.2000 124.300 main 211 179 __________O___ -1 18.2000 124.300 4 8 299
1912281N15140 1912 52 WP MM NOT_NAMED 1912-10-09 18:00:00 NR 18.3296 124.047 main 179 137 __________P___ -1 18.3296 124.047 4 8 298
1912281N15140 1912 52 WP MM NOT_NAMED 1912-10-09 21:00:00 NR 18.5244 123.644 main 137 100 __________P___ -1 18.5244 123.644 4 9 295
1912281N15140 1912 52 WP MM NOT_NAMED 1912-10-10 00:00:00 NR 18.7058 123.212 main 100 69 __________P___ -1 18.7058 123.212 4 9 292
1912281N15140 1912 52 WP MM NOT_NAMED 1912-10-10 03:00:00 NR 18.8583 122.757 main 76 64 __________P___ -1 18.8583 122.757 4 9 289
1912281N15140 1912 52 WP MM NOT_NAMED 1912-10-10 04:00:00 NR 18.9000 122.600 main 64 56 __________O___ -1 18.9000 122.600 4 9 285
1912281N15140 1912 52 WP MM NOT_NAMED 1912-10-10 06:00:00 NR 18.9830 122.273 main 67 67 __________P___ -1 18.9830 122.273 4 10 283
1912281N15140 1912 52 WP MM NOT_NAMED 1912-10-10 09:00:00 NR 19.0763 121.764 main 79 67 __________P___ -1 19.0763 121.764 4 10 278
1912281N15140 1912 52 WP MM NOT_NAMED 1912-10-10 12:00:00 NR 19.1239 121.252 main 67 55 __________P___ -1 19.1239 121.252 4 10 272
1912281N15140 1912 52 WP MM NOT_NAMED 1912-10-10 15:00:00 NR 19.1164 120.757 main 55 56 __________P___ -1 19.1164 120.757 4 9 268
1912281N15140 1912 52 WP MM NOT_NAMED 1912-10-10 16:00:00 NR 19.1000 120.600 main 59 59 __________O___ -1 19.1000 120.600 4 8 262
1912281N15140 1912 52 WP MM NOT_NAMED 1912-10-10 18:00:00 NR 19.0629 120.347 main 76 69 __________P___ -1 19.0629 120.347 4 7 256
1912281N15140 1912 52 WP MM NOT_NAMED 1912-10-10 21:00:00 NR 18.9576 119.995 main 92 84 __________P___ -1 18.9576 119.995 4 7 249
1912281N15140 1912 52 WP MM NOT_NAMED 1912-10-11 00:00:00 NR 18.7964 119.623 main 114 114 __________P___ -1 18.7964 119.623 4 9 244
1912281N15140 1912 52 WP MM NOT_NAMED 1912-10-11 03:00:00 NR 18.5825 119.176 main 148 154 __________P___ -1 18.5825 119.176 4 10 243
1912281N15140 1912 52 WP MM NOT_NAMED 1912-10-11 04:00:00 NR 18.5000 119.000 main 164 164 __________O___ -1 18.5000 119.000 4 12 244
1912281N15140 1912 52 WP MM NOT_NAMED 1912-10-11 06:00:00 NR 18.3181 118.595 main 196 196 __________P___ -1 18.3181 118.595 4 14 244
1912281N15140 1912 52 WP MM NOT_NAMED 1912-10-11 09:00:00 NR 18.0007 117.900 main 258 258 __________P___ -1 18.0007 117.900 4 16 245
1912281N15140 1912 52 WP MM NOT_NAMED 1912-10-11 12:00:00 NR 17.6551 117.122 main 327 321 __________P___ -1 17.6551 117.122 4 17 246
1912281N15140 1912 52 WP MM NOT_NAMED 1912-10-11 15:00:00 NR 17.3100 116.287 main 389 399 __________P___ -1 17.3100 116.287 4 17 247
1912281N15140 1912 52 WP MM NOT_NAMED 1912-10-11 16:00:00 NR 17.2000 116.000 main 416 416 __________O___ -1 17.2000 116.000 4 18 249
1912281N15140 1912 52 WP MM NOT_NAMED 1912-10-11 18:00:00 NR 16.9904 115.398 main 472 482 __________P___ -1 16.9904 115.398 4 19 251
1912281N15140 1912 52 WP MM NOT_NAMED 1912-10-11 21:00:00 NR 16.6879 114.455 main 484 416 __________P___ -1 16.6879 114.455 4 19 252
1912281N15140 1912 52 WP MM NOT_NAMED 1912-10-12 00:00:00 NR 16.4101 113.521 main 416 371 __________P___ -1 16.4101 113.521 4 18 253
1912281N15140 1912 52 WP MM NOT_NAMED 1912-10-12 03:00:00 NR 16.1696 112.660 main 371 360 __________P___ -1 16.1696 112.660 4 17 254
1912281N15140 1912 52 WP MM NOT_NAMED 1912-10-12 04:00:00 NR 16.1000 112.400 main 360 342 __________O___ -1 16.1000 112.400 4 14 254
1912281N15140 1912 52 WP MM NOT_NAMED 1912-10-12 06:00:00 NR 15.9730 111.957 main 342 275 __________P___ -1 15.9730 111.957 4 12 254
1912281N15140 1912 52 WP MM NOT_NAMED 1912-10-12 09:00:00 NR 15.8214 111.380 main 275 221 __________P___ -1 15.8214 111.380 4 11 256
1912281N15140 1912 52 WP MM NOT_NAMED 1912-10-12 12:00:00 NR 15.7083 110.867 main 221 166 __________P___ -1 15.7083 110.867 4 10 259
1912281N15140 1912 52 WP MM NOT_NAMED 1912-10-12 15:00:00 NR 15.6236 110.370 main 166 146 __________P___ -1 15.6236 110.370 4 10 260
1912281N15140 1912 52 WP MM NOT_NAMED 1912-10-12 16:00:00 NR 15.6000 110.200 main 146 106 __________O___ -1 15.6000 110.200 4 10 263
1912281N15140 1912 52 WP MM NOT_NAMED 1912-10-12 18:00:00 NR 15.5575 109.847 main 106 54 __________P___ -1 15.5575 109.847 4 11 264
1912281N15140 1912 52 WP MM NOT_NAMED 1912-10-12 21:00:00 NR 15.5034 109.287 main 54 10 __________P___ -1 15.5034 109.287 4 11 265
1912281N15140 1912 52 WP MM NOT_NAMED 1912-10-13 00:00:00 NR 15.4569 108.702 main 10 0 __________P___ -1 15.4569 108.702 4 11 266
1912281N15140 1912 52 WP MM NOT_NAMED 1912-10-13 03:00:00 NR 15.4141 108.101 main 0 0 __________P___ -1 15.4141 108.101 4 12 266
1912281N15140 1912 52 WP MM NOT_NAMED 1912-10-13 04:00:00 NR 15.4000 107.900 main 0 __________O___ -1 15.4000 107.900 4 12 266

Digital Typhoon Data and Search

About IBTrACS Database

This database is a web-friendly format of International Best Track Archive for Climate Stewardship (IBTrACS), a global best track data archive curated by NOAA dating back to 1842.

Updated: 2021-10-21